sensor_id;sensor_type;location;lat;lon;timestamp;pressure;altitude;pressure_sealevel;temperature
72054;BMP280;59918;51.280;7.950;2024-03-29T00:01:45;95921.31;;;7.03
72054;BMP280;59918;51.280;7.950;2024-03-29T00:04:11;95923.31;;;7.01
72054;BMP280;59918;51.280;7.950;2024-03-29T00:06:36;95913.88;;;7.01
72054;BMP280;59918;51.280;7.950;2024-03-29T00:09:01;95908.53;;;7.03
72054;BMP280;59918;51.280;7.950;2024-03-29T00:11:27;95910.09;;;7.04
72054;BMP280;59918;51.280;7.950;2024-03-29T00:13:52;95902.63;;;7.02
72054;BMP280;59918;51.280;7.950;2024-03-29T00:16:17;95900.88;;;7.03
72054;BMP280;59918;51.280;7.950;2024-03-29T00:18:42;95894.66;;;6.99
72054;BMP280;59918;51.280;7.950;2024-03-29T00:21:08;95892.88;;;6.99
72054;BMP280;59918;51.280;7.950;2024-03-29T00:23:33;95886.00;;;7.00
72054;BMP280;59918;51.280;7.950;2024-03-29T00:25:58;95897.84;;;7.06
72054;BMP280;59918;51.280;7.950;2024-03-29T00:28:23;95897.97;;;7.11
72054;BMP280;59918;51.280;7.950;2024-03-29T00:30:51;95891.41;;;7.15
72054;BMP280;59918;51.280;7.950;2024-03-29T00:33:16;95882.16;;;7.14
72054;BMP280;59918;51.280;7.950;2024-03-29T00:35:41;95895.97;;;7.13
72054;BMP280;59918;51.280;7.950;2024-03-29T00:38:07;95871.41;;;7.12
72054;BMP280;59918;51.280;7.950;2024-03-29T00:40:32;95856.53;;;7.09
72054;BMP280;59918;51.280;7.950;2024-03-29T00:42:57;95862.19;;;7.11
72054;BMP280;59918;51.280;7.950;2024-03-29T00:45:22;95853.28;;;7.13
72054;BMP280;59918;51.280;7.950;2024-03-29T00:47:48;95853.50;;;7.12
72054;BMP280;59918;51.280;7.950;2024-03-29T00:50:13;95859.94;;;7.14
72054;BMP280;59918;51.280;7.950;2024-03-29T00:52:41;95863.28;;;7.15
72054;BMP280;59918;51.280;7.950;2024-03-29T00:55:06;95867.38;;;7.16
72054;BMP280;59918;51.280;7.950;2024-03-29T00:57:32;95872.81;;;7.19
72054;BMP280;59918;51.280;7.950;2024-03-29T00:59:57;95868.47;;;7.20
72054;BMP280;59918;51.280;7.950;2024-03-29T01:02:23;95883.03;;;7.19
72054;BMP280;59918;51.280;7.950;2024-03-29T01:04:48;95867.22;;;7.22
72054;BMP280;59918;51.280;7.950;2024-03-29T01:07:13;95873.16;;;7.23
72054;BMP280;59918;51.280;7.950;2024-03-29T01:09:38;95873.00;;;7.29
72054;BMP280;59918;51.280;7.950;2024-03-29T01:12:04;95874.09;;;7.33
72054;BMP280;59918;51.280;7.950;2024-03-29T01:14:29;95874.88;;;7.33
72054;BMP280;59918;51.280;7.950;2024-03-29T01:16:54;95876.19;;;7.36
72054;BMP280;59918;51.280;7.950;2024-03-29T01:19:20;95883.41;;;7.39
72054;BMP280;59918;51.280;7.950;2024-03-29T01:21:45;95869.94;;;7.43
72054;BMP280;59918;51.280;7.950;2024-03-29T01:24:10;95856.69;;;7.46
72054;BMP280;59918;51.280;7.950;2024-03-29T01:26:35;95871.03;;;7.47
72054;BMP280;59918;51.280;7.950;2024-03-29T01:29:03;95861.56;;;7.48
72054;BMP280;59918;51.280;7.950;2024-03-29T01:31:28;95862.91;;;7.50
72054;BMP280;59918;51.280;7.950;2024-03-29T01:33:53;95865.22;;;7.52
72054;BMP280;59918;51.280;7.950;2024-03-29T01:36:18;95868.09;;;7.55
72054;BMP280;59918;51.280;7.950;2024-03-29T01:38:44;95868.19;;;7.60
72054;BMP280;59918;51.280;7.950;2024-03-29T01:41:09;95892.06;;;7.65
72054;BMP280;59918;51.280;7.950;2024-03-29T01:43:34;95896.50;;;7.70
72054;BMP280;59918;51.280;7.950;2024-03-29T01:45:59;95896.34;;;7.76
72054;BMP280;59918;51.280;7.950;2024-03-29T01:48:26;95906.41;;;7.83
72054;BMP280;59918;51.280;7.950;2024-03-29T01:50:55;95911.09;;;7.86
72054;BMP280;59918;51.280;7.950;2024-03-29T01:53:21;95907.28;;;7.88
72054;BMP280;59918;51.280;7.950;2024-03-29T01:55:47;95905.25;;;7.90
72054;BMP280;59918;51.280;7.950;2024-03-29T01:58:13;95907.13;;;7.95
72054;BMP280;59918;51.280;7.950;2024-03-29T02:00:43;95892.84;;;7.98
72054;BMP280;59918;51.280;7.950;2024-03-29T02:03:11;95892.41;;;8.01
72054;BMP280;59918;51.280;7.950;2024-03-29T02:05:37;95892.94;;;8.03
72054;BMP280;59918;51.280;7.950;2024-03-29T02:08:04;95889.13;;;8.06
72054;BMP280;59918;51.280;7.950;2024-03-29T02:10:29;95893.25;;;8.07
72054;BMP280;59918;51.280;7.950;2024-03-29T02:12:54;95873.56;;;8.07
72054;BMP280;59918;51.280;7.950;2024-03-29T02:15:20;95868.44;;;8.07
72054;BMP280;59918;51.280;7.950;2024-03-29T02:17:45;95868.44;;;8.07
72054;BMP280;59918;51.280;7.950;2024-03-29T02:20:10;95861.34;;;8.09
72054;BMP280;59918;51.280;7.950;2024-03-29T02:22:41;95873.66;;;8.12
72054;BMP280;59918;51.280;7.950;2024-03-29T02:25:09;95874.19;;;8.14
72054;BMP280;59918;51.280;7.950;2024-03-29T02:27:34;95851.16;;;8.14
72054;BMP280;59918;51.280;7.950;2024-03-29T02:29:59;95831.47;;;8.15
72054;BMP280;59918;51.280;7.950;2024-03-29T02:32:27;95841.44;;;8.16
72054;BMP280;59918;51.280;7.950;2024-03-29T02:34:53;95849.22;;;8.21
72054;BMP280;59918;51.280;7.950;2024-03-29T02:37:18;95867.22;;;8.26
72054;BMP280;59918;51.280;7.950;2024-03-29T02:39:43;95873.97;;;8.32
72054;BMP280;59918;51.280;7.950;2024-03-29T02:42:09;95849.97;;;8.38
72054;BMP280;59918;51.280;7.950;2024-03-29T02:44:34;95870.06;;;8.46
72054;BMP280;59918;51.280;7.950;2024-03-29T02:46:59;95845.28;;;8.51
72054;BMP280;59918;51.280;7.950;2024-03-29T02:49:24;95871.72;;;8.57
72054;BMP280;59918;51.280;7.950;2024-03-29T02:51:50;95865.13;;;8.61
72054;BMP280;59918;51.280;7.950;2024-03-29T02:54:15;95867.91;;;8.59
72054;BMP280;59918;51.280;7.950;2024-03-29T02:56:40;95860.78;;;8.61
72054;BMP280;59918;51.280;7.950;2024-03-29T02:59:06;95851.84;;;8.64
72054;BMP280;59918;51.280;7.950;2024-03-29T03:01:31;95847.00;;;8.67
72054;BMP280;59918;51.280;7.950;2024-03-29T03:03:56;95847.72;;;8.63
72054;BMP280;59918;51.280;7.950;2024-03-29T03:06:21;95849.94;;;8.54
72054;BMP280;59918;51.280;7.950;2024-03-29T03:08:47;95840.88;;;8.47
72054;BMP280;59918;51.280;7.950;2024-03-29T03:11:12;95838.00;;;8.43
72054;BMP280;59918;51.280;7.950;2024-03-29T03:13:37;95844.91;;;8.43
72054;BMP280;59918;51.280;7.950;2024-03-29T03:16:02;95843.38;;;8.42
72054;BMP280;59918;51.280;7.950;2024-03-29T03:18:28;95827.00;;;8.43
72054;BMP280;59918;51.280;7.950;2024-03-29T03:20:54;95828.28;;;8.45
72054;BMP280;59918;51.280;7.950;2024-03-29T03:23:20;95816.28;;;8.46
72054;BMP280;59918;51.280;7.950;2024-03-29T03:25:53;95832.72;;;8.50
72054;BMP280;59918;51.280;7.950;2024-03-29T03:28:19;95826.81;;;8.49
72054;BMP280;59918;51.280;7.950;2024-03-29T03:30:44;95833.19;;;8.47
72054;BMP280;59918;51.280;7.950;2024-03-29T03:33:09;95848.25;;;8.43
72054;BMP280;59918;51.280;7.950;2024-03-29T03:35:34;95836.47;;;8.42
72054;BMP280;59918;51.280;7.950;2024-03-29T03:38:00;95821.41;;;8.46
72054;BMP280;59918;51.280;7.950;2024-03-29T03:40:25;95825.28;;;8.48
72054;BMP280;59918;51.280;7.950;2024-03-29T03:42:50;95834.75;;;8.48
72054;BMP280;59918;51.280;7.950;2024-03-29T03:45:15;95821.69;;;8.49
72054;BMP280;59918;51.280;7.950;2024-03-29T03:47:41;95817.59;;;8.48
72054;BMP280;59918;51.280;7.950;2024-03-29T03:50:06;95830.41;;;8.48
72054;BMP280;59918;51.280;7.950;2024-03-29T03:52:31;95837.53;;;8.46
72054;BMP280;59918;51.280;7.950;2024-03-29T03:54:57;95836.78;;;8.46
72054;BMP280;59918;51.280;7.950;2024-03-29T03:57:22;95820.59;;;8.45
72054;BMP280;59918;51.280;7.950;2024-03-29T03:59:49;95830.09;;;8.45
72054;BMP280;59918;51.280;7.950;2024-03-29T04:02:14;95834.66;;;8.43
72054;BMP280;59918;51.280;7.950;2024-03-29T04:04:40;95828.78;;;8.42
72054;BMP280;59918;51.280;7.950;2024-03-29T04:07:05;95833.66;;;8.44
72054;BMP280;59918;51.280;7.950;2024-03-29T04:09:30;95842.66;;;8.46
72054;BMP280;59918;51.280;7.950;2024-03-29T04:11:55;95852.38;;;8.44
72054;BMP280;59918;51.280;7.950;2024-03-29T04:14:21;95849.19;;;8.37
72054;BMP280;59918;51.280;7.950;2024-03-29T04:16:46;95841.63;;;8.26
72054;BMP280;59918;51.280;7.950;2024-03-29T04:19:11;95835.88;;;8.19
72054;BMP280;59918;51.280;7.950;2024-03-29T04:21:37;95834.50;;;8.12
72054;BMP280;59918;51.280;7.950;2024-03-29T04:24:02;95823.91;;;8.08
72054;BMP280;59918;51.280;7.950;2024-03-29T04:26:27;95835.88;;;8.03
72054;BMP280;59918;51.280;7.950;2024-03-29T04:28:52;95832.78;;;8.01
72054;BMP280;59918;51.280;7.950;2024-03-29T04:31:18;95843.16;;;7.95
72054;BMP280;59918;51.280;7.950;2024-03-29T04:33:45;95822.06;;;7.88
72054;BMP280;59918;51.280;7.950;2024-03-29T04:36:10;95817.91;;;7.82
72054;BMP280;59918;51.280;7.950;2024-03-29T04:38:35;95815.25;;;7.77
72054;BMP280;59918;51.280;7.950;2024-03-29T04:41:01;95810.06;;;7.72
72054;BMP280;59918;51.280;7.950;2024-03-29T04:43:27;95809.75;;;7.68
72054;BMP280;59918;51.280;7.950;2024-03-29T04:46:03;95816.88;;;7.66
72054;BMP280;59918;51.280;7.950;2024-03-29T04:48:29;95808.13;;;7.63
72054;BMP280;59918;51.280;7.950;2024-03-29T04:50:54;95795.56;;;7.61
72054;BMP280;59918;51.280;7.950;2024-03-29T04:53:19;95790.91;;;7.58
72054;BMP280;59918;51.280;7.950;2024-03-29T04:55:45;95788.59;;;7.57
72054;BMP280;59918;51.280;7.950;2024-03-29T04:58:10;95802.09;;;7.52
72054;BMP280;59918;51.280;7.950;2024-03-29T05:00:38;95784.56;;;7.44
72054;BMP280;59918;51.280;7.950;2024-03-29T05:03:03;95789.13;;;7.42
72054;BMP280;59918;51.280;7.950;2024-03-29T05:05:28;95788.59;;;7.40
72054;BMP280;59918;51.280;7.950;2024-03-29T05:07:54;95774.47;;;7.38
72054;BMP280;59918;51.280;7.950;2024-03-29T05:10:19;95767.06;;;7.36
72054;BMP280;59918;51.280;7.950;2024-03-29T05:12:44;95762.38;;;7.33
72054;BMP280;59918;51.280;7.950;2024-03-29T05:15:09;95762.38;;;7.33
72054;BMP280;59918;51.280;7.950;2024-03-29T05:17:34;95773.09;;;7.30
72054;BMP280;59918;51.280;7.950;2024-03-29T05:20:00;95765.88;;;7.27
72054;BMP280;59918;51.280;7.950;2024-03-29T05:22:25;95763.00;;;7.24
72054;BMP280;59918;51.280;7.950;2024-03-29T05:24:53;95763.00;;;7.24
72054;BMP280;59918;51.280;7.950;2024-03-29T05:27:18;95764.78;;;7.24
72054;BMP280;59918;51.280;7.950;2024-03-29T05:29:44;95758.91;;;7.23
72054;BMP280;59918;51.280;7.950;2024-03-29T05:32:09;95772.44;;;7.24
72054;BMP280;59918;51.280;7.950;2024-03-29T05:34:34;95781.13;;;7.23
72054;BMP280;59918;51.280;7.950;2024-03-29T05:37:01;95765.00;;;7.22
72054;BMP280;59918;51.280;7.950;2024-03-29T05:39:27;95760.91;;;7.21
72054;BMP280;59918;51.280;7.950;2024-03-29T05:41:52;95762.69;;;7.21
72054;BMP280;59918;51.280;7.950;2024-03-29T05:44:17;95754.78;;;7.22
72054;BMP280;59918;51.280;7.950;2024-03-29T05:46:43;95765.25;;;7.21
72054;BMP280;59918;51.280;7.950;2024-03-29T05:49:08;95760.16;;;7.21
72054;BMP280;59918;51.280;7.950;2024-03-29T05:51:33;95752.47;;;7.21
72054;BMP280;59918;51.280;7.950;2024-03-29T05:53:59;95761.91;;;7.20
72054;BMP280;59918;51.280;7.950;2024-03-29T05:56:24;95783.38;;;7.19
72054;BMP280;59918;51.280;7.950;2024-03-29T05:58:49;95788.69;;;7.18
72054;BMP280;59918;51.280;7.950;2024-03-29T06:01:14;95790.16;;;7.14
72054;BMP280;59918;51.280;7.950;2024-03-29T06:03:40;95787.84;;;7.12
72054;BMP280;59918;51.280;7.950;2024-03-29T06:06:05;95794.72;;;7.12
72054;BMP280;59918;51.280;7.950;2024-03-29T06:08:30;95802.19;;;7.13
72054;BMP280;59918;51.280;7.950;2024-03-29T06:10:55;95795.75;;;7.11
72054;BMP280;59918;51.280;7.950;2024-03-29T06:13:21;95780.41;;;7.11
72054;BMP280;59918;51.280;7.950;2024-03-29T06:15:46;95784.50;;;7.12
72054;BMP280;59918;51.280;7.950;2024-03-29T06:18:11;95789.19;;;7.15
72054;BMP280;59918;51.280;7.950;2024-03-29T06:20:36;95798.38;;;7.16
72054;BMP280;59918;51.280;7.950;2024-03-29T06:23:01;95777.38;;;7.14
72054;BMP280;59918;51.280;7.950;2024-03-29T06:25:27;95787.94;;;7.17
72054;BMP280;59918;51.280;7.950;2024-03-29T06:27:52;95776.03;;;7.23
72054;BMP280;59918;51.280;7.950;2024-03-29T06:30:17;95772.00;;;7.27
72054;BMP280;59918;51.280;7.950;2024-03-29T06:32:43;95776.84;;;7.28
72054;BMP280;59918;51.280;7.950;2024-03-29T06:35:08;95770.00;;;7.28
72054;BMP280;59918;51.280;7.950;2024-03-29T06:37:33;95773.63;;;7.32
72054;BMP280;59918;51.280;7.950;2024-03-29T06:39:59;95775.41;;;7.32
72054;BMP280;59918;51.280;7.950;2024-03-29T06:42:24;95774.63;;;7.31
72054;BMP280;59918;51.280;7.950;2024-03-29T06:44:49;95778.28;;;7.35
72054;BMP280;59918;51.280;7.950;2024-03-29T06:47:15;95779.13;;;7.41
72054;BMP280;59918;51.280;7.950;2024-03-29T06:49:40;95767.66;;;7.43
72054;BMP280;59918;51.280;7.950;2024-03-29T06:52:05;95777.97;;;7.48
72054;BMP280;59918;51.280;7.950;2024-03-29T06:54:31;95777.19;;;7.48
72054;BMP280;59918;51.280;7.950;2024-03-29T06:56:56;95785.66;;;7.48
72054;BMP280;59918;51.280;7.950;2024-03-29T06:59:22;95785.09;;;7.46
72054;BMP280;59918;51.280;7.950;2024-03-29T07:01:47;95787.97;;;7.50
72054;BMP280;59918;51.280;7.950;2024-03-29T07:04:13;95790.84;;;7.53
72054;BMP280;59918;51.280;7.950;2024-03-29T07:06:39;95798.50;;;7.53
72054;BMP280;59918;51.280;7.950;2024-03-29T07:09:06;95800.59;;;7.56
72054;BMP280;59918;51.280;7.950;2024-03-29T07:11:31;95807.81;;;7.59
72054;BMP280;59918;51.280;7.950;2024-03-29T07:13:57;95790.44;;;7.61
72054;BMP280;59918;51.280;7.950;2024-03-29T07:16:22;95811.00;;;7.66
72054;BMP280;59918;51.280;7.950;2024-03-29T07:18:47;95809.97;;;7.67
72054;BMP280;59918;51.280;7.950;2024-03-29T07:21:12;95815.88;;;7.67
72054;BMP280;59918;51.280;7.950;2024-03-29T07:23:38;95808.75;;;7.69
72054;BMP280;59918;51.280;7.950;2024-03-29T07:26:04;95818.28;;;7.74
72054;BMP280;59918;51.280;7.950;2024-03-29T07:28:30;95817.75;;;7.72
72054;BMP280;59918;51.280;7.950;2024-03-29T07:30:56;95810.13;;;7.77
72054;BMP280;59918;51.280;7.950;2024-03-29T07:33:23;95816.88;;;7.83
72054;BMP280;59918;51.280;7.950;2024-03-29T07:35:48;95816.47;;;7.91
72054;BMP280;59918;51.280;7.950;2024-03-29T07:38:14;95837.50;;;7.93
72054;BMP280;59918;51.280;7.950;2024-03-29T07:40:39;95826.50;;;7.92
72054;BMP280;59918;51.280;7.950;2024-03-29T07:43:04;95828.50;;;7.90
72054;BMP280;59918;51.280;7.950;2024-03-29T07:45:29;95837.75;;;7.91
72054;BMP280;59918;51.280;7.950;2024-03-29T07:47:57;95829.03;;;7.92
72054;BMP280;59918;51.280;7.950;2024-03-29T07:50:22;95833.47;;;7.97
72054;BMP280;59918;51.280;7.950;2024-03-29T07:52:47;95833.59;;;8.06
72054;BMP280;59918;51.280;7.950;2024-03-29T07:55:13;95830.63;;;8.09
72054;BMP280;59918;51.280;7.950;2024-03-29T07:57:38;95842.53;;;8.20
72054;BMP280;59918;51.280;7.950;2024-03-29T08:00:04;95847.19;;;8.23
72054;BMP280;59918;51.280;7.950;2024-03-29T08:02:32;95849.59;;;8.30
72054;BMP280;59918;51.280;7.950;2024-03-29T08:04:59;95856.59;;;8.34
72054;BMP280;59918;51.280;7.950;2024-03-29T08:07:24;95868.13;;;8.37
72054;BMP280;59918;51.280;7.950;2024-03-29T08:09:51;95870.22;;;8.39
72054;BMP280;59918;51.280;7.950;2024-03-29T08:12:16;95866.72;;;8.45
72054;BMP280;59918;51.280;7.950;2024-03-29T08:14:41;95851.66;;;8.49
72054;BMP280;59918;51.280;7.950;2024-03-29T08:17:07;95863.34;;;8.61
72054;BMP280;59918;51.280;7.950;2024-03-29T08:19:32;95869.06;;;8.68
72054;BMP280;59918;51.280;7.950;2024-03-29T08:21:57;95857.66;;;8.75
72054;BMP280;59918;51.280;7.950;2024-03-29T08:24:22;95867.78;;;8.87
72054;BMP280;59918;51.280;7.950;2024-03-29T08:26:48;95843.28;;;8.96
72054;BMP280;59918;51.280;7.950;2024-03-29T08:29:13;95846.00;;;9.10
72054;BMP280;59918;51.280;7.950;2024-03-29T08:31:38;95862.94;;;9.11
72054;BMP280;59918;51.280;7.950;2024-03-29T08:34:04;95846.56;;;9.12
72054;BMP280;59918;51.280;7.950;2024-03-29T08:36:29;95855.03;;;9.18
72054;BMP280;59918;51.280;7.950;2024-03-29T08:38:54;95858.97;;;9.25
72054;BMP280;59918;51.280;7.950;2024-03-29T08:41:19;95857.47;;;9.29
72054;BMP280;59918;51.280;7.950;2024-03-29T08:43:44;95870.31;;;9.29
72054;BMP280;59918;51.280;7.950;2024-03-29T08:46:10;95870.81;;;9.26
72054;BMP280;59918;51.280;7.950;2024-03-29T08:48:35;95858.50;;;9.28
72054;BMP280;59918;51.280;7.950;2024-03-29T08:51:00;95866.53;;;9.37
72054;BMP280;59918;51.280;7.950;2024-03-29T08:53:25;95861.72;;;9.40
72054;BMP280;59918;51.280;7.950;2024-03-29T08:55:51;95843.78;;;9.45
72054;BMP280;59918;51.280;7.950;2024-03-29T08:58:16;95830.34;;;9.59
72054;BMP280;59918;51.280;7.950;2024-03-29T09:00:41;95820.69;;;9.71
72054;BMP280;59918;51.280;7.950;2024-03-29T09:03:07;95832.91;;;9.90
72054;BMP280;59918;51.280;7.950;2024-03-29T09:05:32;95836.38;;;10.06
72054;BMP280;59918;51.280;7.950;2024-03-29T09:07:57;95841.38;;;10.22
72054;BMP280;59918;51.280;7.950;2024-03-29T09:10:23;95856.34;;;10.35
72054;BMP280;59918;51.280;7.950;2024-03-29T09:12:49;95836.66;;;10.50
72054;BMP280;59918;51.280;7.950;2024-03-29T09:15:14;95850.09;;;10.62
72054;BMP280;59918;51.280;7.950;2024-03-29T09:17:40;95858.28;;;10.59
72054;BMP280;59918;51.280;7.950;2024-03-29T09:20:06;95868.50;;;10.49
72054;BMP280;59918;51.280;7.950;2024-03-29T09:22:31;95874.97;;;10.52
72054;BMP280;59918;51.280;7.950;2024-03-29T09:24:56;95858.84;;;10.66
72054;BMP280;59918;51.280;7.950;2024-03-29T09:27:22;95859.97;;;10.90
72054;BMP280;59918;51.280;7.950;2024-03-29T09:29:50;95866.69;;;10.95
72054;BMP280;59918;51.280;7.950;2024-03-29T09:32:15;95860.97;;;10.84
72054;BMP280;59918;51.280;7.950;2024-03-29T09:34:40;95884.63;;;10.81
72054;BMP280;59918;51.280;7.950;2024-03-29T09:37:05;95883.31;;;10.73
72054;BMP280;59918;51.280;7.950;2024-03-29T09:39:31;95894.06;;;10.65
72054;BMP280;59918;51.280;7.950;2024-03-29T09:41:58;95895.56;;;10.61
72054;BMP280;59918;51.280;7.950;2024-03-29T09:44:26;95897.84;;;10.58
72054;BMP280;59918;51.280;7.950;2024-03-29T09:47:17;95912.44;;;10.48
72054;BMP280;59918;51.280;7.950;2024-03-29T09:49:46;95912.91;;;10.40
72054;BMP280;59918;51.280;7.950;2024-03-29T09:52:12;95906.22;;;10.39
72054;BMP280;59918;51.280;7.950;2024-03-29T09:54:38;95908.25;;;10.37
72054;BMP280;59918;51.280;7.950;2024-03-29T09:57:04;95909.53;;;10.39
72054;BMP280;59918;51.280;7.950;2024-03-29T09:59:30;95908.06;;;10.48
72054;BMP280;59918;51.280;7.950;2024-03-29T10:01:55;95925.53;;;10.46
72054;BMP280;59918;51.280;7.950;2024-03-29T10:04:23;95911.09;;;10.40
72054;BMP280;59918;51.280;7.950;2024-03-29T10:06:49;95919.56;;;10.41
72054;BMP280;59918;51.280;7.950;2024-03-29T10:09:17;95920.34;;;10.41
72054;BMP280;59918;51.280;7.950;2024-03-29T10:11:42;95913.69;;;10.45
72054;BMP280;59918;51.280;7.950;2024-03-29T10:14:08;95902.72;;;10.55
72054;BMP280;59918;51.280;7.950;2024-03-29T10:16:33;95905.34;;;10.64
72054;BMP280;59918;51.280;7.950;2024-03-29T10:18:58;95891.22;;;10.67
72054;BMP280;59918;51.280;7.950;2024-03-29T10:21:25;95913.38;;;10.78
72054;BMP280;59918;51.280;7.950;2024-03-29T10:23:50;95899.06;;;10.87
72054;BMP280;59918;51.280;7.950;2024-03-29T10:26:16;95915.25;;;10.92
72054;BMP280;59918;51.280;7.950;2024-03-29T10:28:43;95936.16;;;11.05
72054;BMP280;59918;51.280;7.950;2024-03-29T10:31:08;95938.25;;;11.13
72054;BMP280;59918;51.280;7.950;2024-03-29T10:33:34;95945.97;;;11.13
72054;BMP280;59918;51.280;7.950;2024-03-29T10:36:00;95952.69;;;11.19
72054;BMP280;59918;51.280;7.950;2024-03-29T10:38:27;95932.66;;;11.31
72054;BMP280;59918;51.280;7.950;2024-03-29T10:40:53;95923.25;;;11.51
72054;BMP280;59918;51.280;7.950;2024-03-29T10:43:19;95923.00;;;11.63
72054;BMP280;59918;51.280;7.950;2024-03-29T10:45:47;95921.50;;;11.71
72054;BMP280;59918;51.280;7.950;2024-03-29T10:48:15;95923.03;;;11.72
72054;BMP280;59918;51.280;7.950;2024-03-29T10:50:41;95922.53;;;11.80
72054;BMP280;59918;51.280;7.950;2024-03-29T10:53:07;95925.66;;;11.97
72054;BMP280;59918;51.280;7.950;2024-03-29T10:55:36;95913.84;;;12.16
72054;BMP280;59918;51.280;7.950;2024-03-29T10:58:03;95917.94;;;12.27
72054;BMP280;59918;51.280;7.950;2024-03-29T11:00:32;95908.69;;;12.36
72054;BMP280;59918;51.280;7.950;2024-03-29T11:03:18;95910.22;;;12.37
72054;BMP280;59918;51.280;7.950;2024-03-29T11:05:48;95924.91;;;12.41
72054;BMP280;59918;51.280;7.950;2024-03-29T11:08:21;95902.22;;;12.43
72054;BMP280;59918;51.280;7.950;2024-03-29T11:10:48;95896.81;;;12.44
72054;BMP280;59918;51.280;7.950;2024-03-29T11:16:07;95899.66;;;12.38
72054;BMP280;59918;51.280;7.950;2024-03-29T11:18:34;95892.97;;;12.32
72054;BMP280;59918;51.280;7.950;2024-03-29T11:21:00;95898.13;;;12.32
72054;BMP280;59918;51.280;7.950;2024-03-29T11:23:27;95892.19;;;12.32
72054;BMP280;59918;51.280;7.950;2024-03-29T11:25:54;95903.75;;;12.39
72054;BMP280;59918;51.280;7.950;2024-03-29T11:28:38;95903.00;;;12.38
72054;BMP280;59918;51.280;7.950;2024-03-29T11:31:08;95895.25;;;12.53
72054;BMP280;59918;51.280;7.950;2024-03-29T11:33:34;95898.56;;;12.74
72054;BMP280;59918;51.280;7.950;2024-03-29T11:38:45;95896.47;;;13.00
72054;BMP280;59918;51.280;7.950;2024-03-29T11:41:12;95892.28;;;13.09
72054;BMP280;59918;51.280;7.950;2024-03-29T11:43:40;95880.66;;;13.12
72054;BMP280;59918;51.280;7.950;2024-03-29T11:46:07;95915.19;;;13.35
72054;BMP280;59918;51.280;7.950;2024-03-29T11:48:33;95914.41;;;13.30
72054;BMP280;59918;51.280;7.950;2024-03-29T11:51:00;95921.34;;;13.39
72054;BMP280;59918;51.280;7.950;2024-03-29T11:53:25;95921.25;;;13.54
72054;BMP280;59918;51.280;7.950;2024-03-29T11:55:51;95935.63;;;13.75
72054;BMP280;59918;51.280;7.950;2024-03-29T11:58:18;95935.13;;;13.68
72054;BMP280;59918;51.280;7.950;2024-03-29T12:00:43;95940.31;;;13.68
72054;BMP280;59918;51.280;7.950;2024-03-29T12:03:09;95936.00;;;13.96
72054;BMP280;59918;51.280;7.950;2024-03-29T12:05:34;95940.03;;;14.17
72054;BMP280;59918;51.280;7.950;2024-03-29T12:08:00;95940.06;;;14.12
72054;BMP280;59918;51.280;7.950;2024-03-29T12:10:28;95942.75;;;13.92
72054;BMP280;59918;51.280;7.950;2024-03-29T12:12:57;95945.97;;;13.75
72054;BMP280;59918;51.280;7.950;2024-03-29T12:15:27;95941.19;;;13.91
72054;BMP280;59918;51.280;7.950;2024-03-29T12:18:00;95925.44;;;14.31
72054;BMP280;59918;51.280;7.950;2024-03-29T12:20:26;95928.88;;;14.83
72054;BMP280;59918;51.280;7.950;2024-03-29T12:22:51;95939.84;;;14.98
72054;BMP280;59918;51.280;7.950;2024-03-29T12:25:36;95928.31;;;14.86
72054;BMP280;59918;51.280;7.950;2024-03-29T12:28:01;95968.88;;;14.62
72054;BMP280;59918;51.280;7.950;2024-03-29T12:30:27;95944.19;;;14.46
72054;BMP280;59918;51.280;7.950;2024-03-29T12:33:13;95965.19;;;14.40
72054;BMP280;59918;51.280;7.950;2024-03-29T12:35:38;95944.59;;;14.58
72054;BMP280;59918;51.280;7.950;2024-03-29T12:38:04;95952.16;;;14.83
72054;BMP280;59918;51.280;7.950;2024-03-29T12:40:31;95958.44;;;14.72
72054;BMP280;59918;51.280;7.950;2024-03-29T12:42:56;95973.22;;;14.38
72054;BMP280;59918;51.280;7.950;2024-03-29T12:45:22;95969.25;;;14.13
72054;BMP280;59918;51.280;7.950;2024-03-29T12:47:48;95986.66;;;13.92
72054;BMP280;59918;51.280;7.950;2024-03-29T12:50:28;95999.41;;;13.74
72054;BMP280;59918;51.280;7.950;2024-03-29T12:53:02;96004.44;;;13.46
72054;BMP280;59918;51.280;7.950;2024-03-29T12:55:28;96012.97;;;13.37
72054;BMP280;59918;51.280;7.950;2024-03-29T12:57:54;96025.09;;;13.36
72054;BMP280;59918;51.280;7.950;2024-03-29T13:00:20;96007.00;;;13.46
72054;BMP280;59918;51.280;7.950;2024-03-29T13:02:45;96021.69;;;13.50
72054;BMP280;59918;51.280;7.950;2024-03-29T13:05:11;96025.09;;;13.36
72054;BMP280;59918;51.280;7.950;2024-03-29T13:07:36;96024.66;;;13.14
72054;BMP280;59918;51.280;7.950;2024-03-29T13:10:04;96023.63;;;12.66
72054;BMP280;59918;51.280;7.950;2024-03-29T13:12:30;96016.91;;;12.40
72054;BMP280;59918;51.280;7.950;2024-03-29T13:14:55;96044.69;;;12.19
72054;BMP280;59918;51.280;7.950;2024-03-29T13:17:21;96047.75;;;12.01
72054;BMP280;59918;51.280;7.950;2024-03-29T13:19:46;96036.44;;;12.02
72054;BMP280;59918;51.280;7.950;2024-03-29T13:22:11;96043.66;;;12.10
72054;BMP280;59918;51.280;7.950;2024-03-29T13:24:37;96045.19;;;12.11
72054;BMP280;59918;51.280;7.950;2024-03-29T13:27:02;96048.28;;;12.03
72054;BMP280;59918;51.280;7.950;2024-03-29T13:29:30;96052.34;;;11.94
72054;BMP280;59918;51.280;7.950;2024-03-29T13:31:55;96045.91;;;11.92
72054;BMP280;59918;51.280;7.950;2024-03-29T13:34:21;96042.56;;;11.96
72054;BMP280;59918;51.280;7.950;2024-03-29T13:36:46;96040.28;;;11.95
72054;BMP280;59918;51.280;7.950;2024-03-29T13:39:12;96040.47;;;11.88
72054;BMP280;59918;51.280;7.950;2024-03-29T13:41:37;96037.38;;;11.81
72054;BMP280;59918;51.280;7.950;2024-03-29T13:44:03;96035.06;;;11.75
72054;BMP280;59918;51.280;7.950;2024-03-29T13:46:28;96052.75;;;11.62
72054;BMP280;59918;51.280;7.950;2024-03-29T13:48:53;96041.13;;;11.49
72054;BMP280;59918;51.280;7.950;2024-03-29T13:51:19;96032.00;;;11.32
72054;BMP280;59918;51.280;7.950;2024-03-29T13:53:44;96034.00;;;11.25
72054;BMP280;59918;51.280;7.950;2024-03-29T13:56:09;96052.81;;;11.30
72054;BMP280;59918;51.280;7.950;2024-03-29T13:58:37;96072.06;;;11.23
72054;BMP280;59918;51.280;7.950;2024-03-29T14:01:02;96074.91;;;11.27
72054;BMP280;59918;51.280;7.950;2024-03-29T14:03:27;96086.09;;;11.42
72054;BMP280;59918;51.280;7.950;2024-03-29T14:05:52;96084.94;;;11.59
72054;BMP280;59918;51.280;7.950;2024-03-29T14:08:18;96076.44;;;11.64
72054;BMP280;59918;51.280;7.950;2024-03-29T14:10:43;96080.59;;;11.74
72054;BMP280;59918;51.280;7.950;2024-03-29T14:13:08;96074.28;;;12.02
72054;BMP280;59918;51.280;7.950;2024-03-29T14:15:33;96072.75;;;12.05